createdAt,value
2023-03-29T00:25:41.608Z,31.10
2023-03-29T00:55:45.003Z,38.03
2023-03-29T01:25:48.267Z,37.90
2023-03-29T01:55:51.870Z,38.50
2023-03-29T02:25:55.748Z,39.40
2023-03-29T02:55:59.151Z,32.07
2023-03-29T03:26:02.711Z,38.93
2023-03-29T03:56:06.307Z,38.80
2023-03-29T04:26:09.395Z,34.87
2023-03-29T04:56:12.885Z,34.60
2023-03-29T05:26:16.027Z,40.17
2023-03-29T05:56:19.454Z,19.67
2023-03-29T06:26:22.622Z,18.43
2023-03-29T06:56:25.976Z,20.93
2023-03-29T07:26:30.185Z,20.03
2023-03-29T07:56:33.919Z,18.80
2023-03-29T08:26:37.215Z,16.70
2023-03-29T08:56:40.580Z,16.30
2023-03-29T09:26:43.858Z,13.20
2023-03-29T09:56:46.768Z,10.97
2023-03-29T10:26:51.446Z,9.17
2023-03-29T10:56:54.324Z,12.80
2023-03-29T11:26:58.240Z,8.90
2023-03-29T11:57:01.172Z,8.25
2023-03-29T12:27:05.566Z,6.23
2023-03-29T12:57:08.512Z,9.53
2023-03-29T13:27:12.142Z,8.87
2023-03-29T13:57:32.987Z,8.53
2023-03-29T16:00:28.295Z,5.30
2023-03-29T17:01:38.587Z,15.20
2023-03-29T17:31:42.657Z,9.43
2023-03-29T18:01:45.947Z,14.55
2023-03-29T18:31:52.735Z,15.20
2023-03-29T20:03:33.245Z,11.50
2023-03-29T20:33:36.709Z,12.33
2023-03-29T21:03:39.850Z,12.57
2023-03-29T21:33:43.248Z,15.57
2023-03-29T22:03:46.344Z,27.07
2023-03-29T22:33:49.288Z,26.43
2023-03-29T23:03:56.289Z,20.63
2023-03-29T23:33:59.706Z,19.60
